createdAt,value
2023-04-12T00:02:02.487Z,1.20
2023-04-12T00:04:55.380Z,1.58
2023-04-12T00:07:42.814Z,2.03
2023-04-12T00:10:28.583Z,0.93
2023-04-12T00:13:14.256Z,0.68
2023-04-12T00:15:59.695Z,0.85
2023-04-12T00:18:45.800Z,1.35
2023-04-12T00:21:31.481Z,1.95
2023-04-12T00:24:17.130Z,1.08
2023-04-12T00:27:02.781Z,0.65
2023-04-12T00:29:48.143Z,1.15
2023-04-12T00:32:35.170Z,1.25
2023-04-12T00:35:20.457Z,0.85
2023-04-12T00:38:10.590Z,1.60
2023-04-12T00:40:56.805Z,1.10
2023-04-12T00:43:42.534Z,1.35
2023-04-12T00:46:29.658Z,1.02
2023-04-12T00:49:15.651Z,2.17
2023-04-12T00:52:06.997Z,1.17
2023-04-12T00:54:53.819Z,2.45
2023-04-12T00:57:40.586Z,0.65
2023-04-12T01:00:26.436Z,1.75
2023-04-12T01:03:13.799Z,2.30
2023-04-12T01:06:29.833Z,1.45
2023-04-12T01:09:34.357Z,0.60
2023-04-12T01:12:35.937Z,0.70
2023-04-12T01:15:26.465Z,1.25
2023-04-12T01:18:22.178Z,0.93
2023-04-12T01:21:16.635Z,1.35
2023-04-12T01:24:22.520Z,1.55
2023-04-12T01:27:13.609Z,1.13
2023-04-12T01:30:02.047Z,1.45
2023-04-12T01:32:51.590Z,0.60
2023-04-12T01:35:37.802Z,0.90
2023-04-12T01:38:23.945Z,0.40
2023-04-12T01:41:10.361Z,0.90
2023-04-12T01:43:57.026Z,0.70
2023-04-12T01:46:47.576Z,0.75
2023-04-12T01:49:38.319Z,1.33
2023-04-12T01:52:31.197Z,0.80
2023-04-12T01:55:21.726Z,1.25
2023-04-12T01:58:09.287Z,1.00
2023-04-12T02:03:43.563Z,0.88
2023-04-12T02:06:29.504Z,1.08
2023-04-12T02:09:14.797Z,1.05
2023-04-12T02:12:01.178Z,1.67
2023-04-12T02:14:48.432Z,1.88
2023-04-12T02:17:37.424Z,1.10
2023-04-12T02:20:24.345Z,1.10
2023-04-12T02:23:10.076Z,1.00
2023-04-12T02:25:55.503Z,0.63
2023-04-12T02:28:41.336Z,0.60
2023-04-12T02:31:30.679Z,1.42
2023-04-12T02:34:18.256Z,1.25
2023-04-12T02:37:09.244Z,1.25
2023-04-12T02:39:57.081Z,0.45
2023-04-12T02:42:44.552Z,0.55
2023-04-12T02:45:31.648Z,1.42
2023-04-12T02:48:17.849Z,1.15
2023-04-12T02:51:03.886Z,1.65
2023-04-12T02:53:51.437Z,2.95
2023-04-12T02:56:40.955Z,1.98
2023-04-12T02:59:44.362Z,2.90
2023-04-12T03:05:47.194Z,1.88
2023-04-12T03:08:35.124Z,1.60
2023-04-12T03:11:20.892Z,0.90
2023-04-12T03:14:06.397Z,0.50
2023-04-12T03:16:53.629Z,1.52
2023-04-12T03:19:39.711Z,1.33
2023-04-12T03:22:26.157Z,1.10
2023-04-12T03:25:18.715Z,1.52
2023-04-12T03:28:10.722Z,0.70
2023-04-12T03:31:08.563Z,1.27
2023-04-12T03:33:58.453Z,0.88
2023-04-12T03:36:44.492Z,1.15
2023-04-12T03:39:38.275Z,1.60
2023-04-12T03:42:33.045Z,1.83
2023-04-12T03:45:28.429Z,3.35
2023-04-12T03:48:17.207Z,1.27
2023-04-12T03:51:07.840Z,2.33
2023-04-12T03:53:57.282Z,1.27
2023-04-12T03:56:44.922Z,1.03
2023-04-12T03:59:38.370Z,1.50
2023-04-12T04:02:24.921Z,1.25
2023-04-12T04:05:13.314Z,1.25
2023-04-12T04:08:02.315Z,0.90
2023-04-12T04:10:53.429Z,2.28
2023-04-12T04:13:43.326Z,0.90
2023-04-12T04:16:33.827Z,0.95
2023-04-12T04:19:21.819Z,1.20
2023-04-12T04:22:07.265Z,1.85
2023-04-12T04:24:53.210Z,2.60
2023-04-12T04:27:38.809Z,3.80
2023-04-12T04:33:13.123Z,2.97
2023-04-12T04:35:59.126Z,2.60
2023-04-12T04:41:44.854Z,2.88
2023-04-12T04:45:02.742Z,4.90
2023-04-12T04:47:56.844Z,5.75
2023-04-12T04:50:42.354Z,2.75
2023-04-12T04:53:28.453Z,4.03
2023-04-12T04:59:03.085Z,2.08
2023-04-12T05:01:49.078Z,4.13
2023-04-12T05:04:37.061Z,2.85
2023-04-12T05:07:23.790Z,3.83
2023-04-12T05:10:10.964Z,4.35
2023-04-12T05:12:59.178Z,4.63
2023-04-12T05:15:44.808Z,6.32
2023-04-12T05:18:30.683Z,2.58
2023-04-12T05:21:16.427Z,3.35
2023-04-12T05:24:01.853Z,4.45
2023-04-12T05:26:49.243Z,4.30
2023-04-12T05:29:34.705Z,3.35
2023-04-12T05:32:21.156Z,3.63
2023-04-12T05:35:07.505Z,2.33
2023-04-12T05:37:55.378Z,3.15
2023-04-12T05:40:44.299Z,2.55
2023-04-12T05:43:33.104Z,2.92
2023-04-12T05:46:18.819Z,2.17
2023-04-12T05:49:08.762Z,2.13
2023-04-12T05:51:54.345Z,4.28
2023-04-12T05:54:41.937Z,2.93
2023-04-12T05:57:32.347Z,4.50
2023-04-12T06:00:19.089Z,5.32
2023-04-12T06:03:05.411Z,3.13
2023-04-12T06:05:51.551Z,3.80
2023-04-12T06:08:38.219Z,4.03
2023-04-12T06:11:25.572Z,4.28
2023-04-12T06:14:12.037Z,3.38
2023-04-12T06:16:58.006Z,2.92
2023-04-12T06:19:43.656Z,3.15
2023-04-12T06:22:29.109Z,4.78
2023-04-12T06:25:14.686Z,3.28
2023-04-12T06:28:00.442Z,3.03
2023-04-12T06:30:45.916Z,4.30
2023-04-12T06:33:31.050Z,2.50
2023-04-12T06:36:16.851Z,3.17
2023-04-12T06:39:03.159Z,2.25
2023-04-12T06:41:50.408Z,2.47
2023-04-12T06:44:38.751Z,2.97
2023-04-12T06:47:25.392Z,2.83
2023-04-12T06:50:11.035Z,3.88
2023-04-12T06:52:56.233Z,3.28
2023-04-12T06:55:41.704Z,2.72
2023-04-12T06:58:26.953Z,3.33
2023-04-12T07:01:14.604Z,2.83
2023-04-12T07:06:45.467Z,3.05
2023-04-12T07:09:32.467Z,2.80
2023-04-12T07:12:17.864Z,3.92
2023-04-12T07:15:03.914Z,3.97
2023-04-12T07:17:49.391Z,4.65
2023-04-12T07:20:35.256Z,5.07
2023-04-12T07:23:20.684Z,3.53
2023-04-12T07:26:06.916Z,3.63
2023-04-12T07:28:52.748Z,3.30
2023-04-12T07:31:38.091Z,2.97
2023-04-12T07:37:09.938Z,3.83
2023-04-12T07:39:55.246Z,3.92
2023-04-12T07:42:41.045Z,3.60
2023-04-12T07:45:27.581Z,3.85
2023-04-12T07:48:13.211Z,4.93
2023-04-12T07:50:58.615Z,3.08
2023-04-12T07:53:48.303Z,2.67
2023-04-12T07:56:34.856Z,3.30
2023-04-12T07:59:20.176Z,2.75
2023-04-12T08:02:06.415Z,2.90
2023-04-12T08:04:52.730Z,4.70
2023-04-12T08:07:38.344Z,1.90
2023-04-12T08:10:24.835Z,2.00
2023-04-12T08:13:10.410Z,2.42
2023-04-12T08:15:56.075Z,1.98
2023-04-12T08:18:41.378Z,2.20
2023-04-12T08:21:27.739Z,1.85
2023-04-12T08:24:13.169Z,1.92
2023-04-12T08:26:58.804Z,1.95
2023-04-12T08:29:45.028Z,2.88
2023-04-12T08:32:30.900Z,3.15
2023-04-12T08:35:16.332Z,1.98
2023-04-12T08:38:07.521Z,2.20
2023-04-12T08:40:52.922Z,2.13
2023-04-12T08:43:41.271Z,2.08
2023-04-12T08:46:28.345Z,2.30
2023-04-12T08:49:13.989Z,3.42
2023-04-12T08:52:03.007Z,2.05
2023-04-12T08:54:49.179Z,2.17
2023-04-12T08:57:41.304Z,2.85
2023-04-12T09:00:27.519Z,1.92
2023-04-12T09:03:13.422Z,2.88
2023-04-12T09:06:03.659Z,1.77
2023-04-12T09:08:56.856Z,2.53
2023-04-12T09:11:42.308Z,2.10
2023-04-12T09:14:28.041Z,1.67
2023-04-12T09:17:29.067Z,1.98
2023-04-12T09:20:17.522Z,2.00
2023-04-12T09:23:20.990Z,2.67
2023-04-12T09:26:06.910Z,1.88
2023-04-12T09:28:52.638Z,1.50
2023-04-12T09:31:38.046Z,1.60
2023-04-12T09:34:24.732Z,1.92
2023-04-12T09:37:17.692Z,1.80
2023-04-12T09:40:06.103Z,1.50
2023-04-12T09:42:56.079Z,1.88
2023-04-12T09:45:41.712Z,1.63
2023-04-12T09:48:28.842Z,2.13
2023-04-12T09:51:14.543Z,1.67
2023-04-12T09:54:06.410Z,1.48
2023-04-12T09:56:52.256Z,1.67
2023-04-12T09:59:40.548Z,1.50
2023-04-12T10:02:28.530Z,1.13
2023-04-12T10:05:17.491Z,2.03
2023-04-12T10:08:05.768Z,1.65
2023-04-12T10:10:54.103Z,1.30
2023-04-12T10:13:40.351Z,1.25
2023-04-12T10:16:27.692Z,1.60
2023-04-12T10:21:59.572Z,1.80
2023-04-12T10:24:45.672Z,1.50
2023-04-12T10:27:31.977Z,1.55
2023-04-12T10:30:31.722Z,1.08
2023-04-12T10:33:24.840Z,1.20
2023-04-12T10:36:13.127Z,1.20
2023-04-12T10:39:12.368Z,1.20
2023-04-12T10:42:16.272Z,1.10
2023-04-12T10:45:24.009Z,1.90
2023-04-12T10:48:31.989Z,1.00
2023-04-12T10:51:28.788Z,1.30
2023-04-12T10:54:37.401Z,1.15
2023-04-12T10:57:54.710Z,1.17
2023-04-12T11:00:58.842Z,1.05
2023-04-12T11:04:15.841Z,0.98
2023-04-12T11:07:42.655Z,1.45
2023-04-12T11:10:47.007Z,1.27
2023-04-12T11:13:47.182Z,0.93
2023-04-12T11:16:33.023Z,1.20
2023-04-12T11:19:19.068Z,1.50
2023-04-12T11:22:05.634Z,1.20
2023-04-12T11:24:56.688Z,1.23
2023-04-12T11:27:49.699Z,1.20
2023-04-12T11:30:35.180Z,1.08
2023-04-12T11:33:39.374Z,1.20
2023-04-12T11:36:26.730Z,1.05
2023-04-12T11:39:13.005Z,1.20
2023-04-12T11:41:59.225Z,1.48
2023-04-12T11:47:34.759Z,1.60
2023-04-12T11:50:31.375Z,3.35
2023-04-12T11:53:19.545Z,1.90
2023-04-12T11:56:05.930Z,1.85
2023-04-12T11:58:52.084Z,1.20
2023-04-12T12:01:38.147Z,1.45
2023-04-12T12:04:24.156Z,2.53
2023-04-12T12:07:12.400Z,4.00
2023-04-12T12:12:44.944Z,1.40
2023-04-12T12:15:31.540Z,1.25
2023-04-12T12:18:17.037Z,1.80
2023-04-12T12:21:02.593Z,1.00
2023-04-12T12:23:48.937Z,0.80
2023-04-12T12:26:36.070Z,1.23
2023-04-12T12:29:23.527Z,0.90
2023-04-12T12:32:14.104Z,0.60
2023-04-12T12:34:59.730Z,0.95
2023-04-12T12:37:51.072Z,0.90
2023-04-12T12:40:37.021Z,1.05
2023-04-12T12:43:22.440Z,0.75
2023-04-12T12:46:07.800Z,0.60
2023-04-12T12:48:53.140Z,1.10
2023-04-12T12:51:38.581Z,0.68
2023-04-12T12:54:39.284Z,0.75
2023-04-12T12:57:25.594Z,0.80
2023-04-12T13:00:13.321Z,0.85
2023-04-12T13:02:59.128Z,0.90
2023-04-12T13:05:44.987Z,0.60
2023-04-12T13:08:35.159Z,0.60
2023-04-12T13:11:21.358Z,0.70
2023-04-12T13:14:07.120Z,0.57
2023-04-12T13:16:52.841Z,0.68
2023-04-12T13:19:38.386Z,0.75
2023-04-12T13:22:23.768Z,0.77
2023-04-12T13:25:09.517Z,0.93
2023-04-12T13:27:54.980Z,0.85
2023-04-12T13:30:40.299Z,1.13
2023-04-12T13:33:25.818Z,0.68
2023-04-12T13:36:11.761Z,0.60
2023-04-12T13:38:57.719Z,0.63
2023-04-12T13:41:43.683Z,0.80
2023-04-12T13:44:29.366Z,0.90
2023-04-12T13:47:15.943Z,0.98
2023-04-12T13:50:01.579Z,0.60
2023-04-12T13:52:47.143Z,0.77
2023-04-12T13:55:32.784Z,0.70
2023-04-12T13:58:18.957Z,1.40
2023-04-12T14:01:04.565Z,0.80
2023-04-12T14:03:50.305Z,0.93
2023-04-12T14:06:36.590Z,0.70
2023-04-12T14:09:27.244Z,0.60
2023-04-12T14:12:12.928Z,1.27
2023-04-12T14:14:58.381Z,0.90
2023-04-12T14:17:44.157Z,0.80
2023-04-12T14:20:30.076Z,0.60
2023-04-12T14:23:17.752Z,0.75
2023-04-12T14:26:03.157Z,0.80
2023-04-12T14:28:50.143Z,0.95
2023-04-12T14:31:36.479Z,2.95
2023-04-12T14:34:22.284Z,2.45
2023-04-12T14:37:08.502Z,1.50
2023-04-12T14:39:54.488Z,1.08
2023-04-12T14:42:40.171Z,1.00
2023-04-12T14:45:27.601Z,1.60
2023-04-12T14:48:13.206Z,3.08
2023-04-12T14:50:58.611Z,1.73
2023-04-12T14:53:43.864Z,0.98
2023-04-12T14:56:30.995Z,0.88
2023-04-12T14:59:17.131Z,0.80
2023-04-12T15:02:02.648Z,0.80
2023-04-12T15:04:51.395Z,1.70
2023-04-12T15:07:37.777Z,1.27
2023-04-12T15:10:23.401Z,1.38
2023-04-12T15:13:09.052Z,1.85
2023-04-12T15:15:54.560Z,1.20
2023-04-12T15:18:41.654Z,1.25
2023-04-12T15:21:28.764Z,1.00
2023-04-12T15:24:14.171Z,1.40
2023-04-12T15:26:59.650Z,2.38
2023-04-12T15:29:45.222Z,2.25
2023-04-12T15:32:36.270Z,3.10
2023-04-12T15:35:26.361Z,2.85
2023-04-12T15:38:15.354Z,2.78
2023-04-12T15:41:02.660Z,3.22
2023-04-12T15:43:49.470Z,6.03
2023-04-12T15:46:36.382Z,5.22
2023-04-12T15:49:21.986Z,3.42
2023-04-12T15:52:08.036Z,4.35
2023-04-12T15:54:53.732Z,6.05
2023-04-12T15:57:39.328Z,7.43
2023-04-12T16:00:26.066Z,7.72
2023-04-12T16:03:17.808Z,8.48
2023-04-12T16:06:03.905Z,11.95
2023-04-12T16:08:54.640Z,12.38
2023-04-12T16:11:40.825Z,21.25
2023-04-12T16:14:26.228Z,30.05
2023-04-12T16:17:11.915Z,23.38
2023-04-12T16:19:58.464Z,11.43
2023-04-12T16:22:48.267Z,9.35
2023-04-12T16:25:35.333Z,16.17
2023-04-12T16:28:22.586Z,10.27
2023-04-12T16:31:08.299Z,5.35
2023-04-12T16:33:54.041Z,1.80
2023-04-12T16:36:39.845Z,1.25
2023-04-12T16:39:25.944Z,1.05
2023-04-12T16:42:12.386Z,1.60
2023-04-12T16:44:58.760Z,1.75
2023-04-12T16:47:46.212Z,8.95
2023-04-12T16:53:17.500Z,5.32
2023-04-12T16:56:02.935Z,3.80
2023-04-12T16:58:49.077Z,4.90
2023-04-12T17:01:34.655Z,5.68
2023-04-12T17:04:20.221Z,5.03
2023-04-12T17:07:05.998Z,3.33
2023-04-12T17:09:51.413Z,3.55
2023-04-12T17:12:36.967Z,2.38
2023-04-12T17:15:22.712Z,3.97
2023-04-12T17:18:12.047Z,4.75
2023-04-12T17:20:59.014Z,3.60
2023-04-12T17:23:44.115Z,4.38
2023-04-12T17:26:29.623Z,4.55
2023-04-12T17:29:14.964Z,3.88
2023-04-12T17:32:00.659Z,20.27
2023-04-12T17:34:46.382Z,4.22
2023-04-12T17:37:31.837Z,6.13
2023-04-12T17:40:17.654Z,4.97
2023-04-12T17:43:03.542Z,11.73
2023-04-12T17:45:49.226Z,10.90
2023-04-12T17:48:34.966Z,9.07
2023-04-12T17:51:20.706Z,8.38
2023-04-12T17:54:06.205Z,7.93
2023-04-12T17:56:51.660Z,8.23
2023-04-12T17:59:37.397Z,6.32
2023-04-12T18:02:23.376Z,5.00
2023-04-12T18:05:09.490Z,5.38
2023-04-12T18:07:57.096Z,6.50
2023-04-12T18:10:43.276Z,4.25
2023-04-12T18:13:28.831Z,5.35
2023-04-12T18:16:14.424Z,5.22
2023-04-12T18:19:04.619Z,3.20
2023-04-12T18:21:51.656Z,2.92
2023-04-12T18:24:38.399Z,2.97
2023-04-12T18:27:24.037Z,2.85
2023-04-12T18:30:09.488Z,2.85
2023-04-12T18:32:55.591Z,2.65
2023-04-12T18:35:41.373Z,2.92
2023-04-12T18:38:29.724Z,4.18
2023-04-12T18:41:15.969Z,4.72
2023-04-12T18:44:01.698Z,3.90
2023-04-12T18:46:47.484Z,4.03
2023-04-12T18:49:33.798Z,4.88
2023-04-12T18:52:19.426Z,5.25
2023-04-12T18:55:06.253Z,3.70
2023-04-12T18:57:51.700Z,4.43
2023-04-12T19:00:37.315Z,4.60
2023-04-12T19:03:24.160Z,4.90
2023-04-12T19:06:12.851Z,6.13
2023-04-12T19:08:58.120Z,15.23
2023-04-12T19:11:43.705Z,17.73
2023-04-12T19:14:30.679Z,10.73
2023-04-12T19:17:16.066Z,11.27
2023-04-12T19:20:01.519Z,6.25
2023-04-12T19:22:46.910Z,6.18
2023-04-12T19:25:33.093Z,10.05
2023-04-12T19:28:19.014Z,11.07
2023-04-12T19:31:10.275Z,6.35
2023-04-12T19:33:56.729Z,5.60
2023-04-12T19:36:43.635Z,5.68
2023-04-12T19:39:29.493Z,5.68
2023-04-12T19:42:18.099Z,5.63
2023-04-12T19:45:03.906Z,5.30
2023-04-12T19:47:49.700Z,5.20
2023-04-12T19:50:36.380Z,5.18
2023-04-12T19:53:22.436Z,5.45
2023-04-12T19:56:09.485Z,3.53
2023-04-12T19:58:55.219Z,3.17
2023-04-12T20:01:50.752Z,3.17
2023-04-12T20:04:36.771Z,5.35
2023-04-12T20:07:22.722Z,8.52
2023-04-12T20:10:10.419Z,8.98
2023-04-12T20:12:56.285Z,14.68
2023-04-12T20:15:45.285Z,10.45
2023-04-12T20:18:32.802Z,9.75
2023-04-12T20:21:18.285Z,9.30
2023-04-12T20:24:04.253Z,9.65
2023-04-12T20:26:49.694Z,7.47
2023-04-12T20:29:36.673Z,7.15
2023-04-12T20:32:23.466Z,7.22
2023-04-12T20:35:09.935Z,5.17
2023-04-12T20:37:56.512Z,6.45
2023-04-12T20:40:42.344Z,7.43
2023-04-12T20:43:28.254Z,7.07
2023-04-12T20:46:20.723Z,9.20
2023-04-12T20:49:07.389Z,5.20
2023-04-12T20:51:56.820Z,3.65
2023-04-12T20:54:43.013Z,1.30
2023-04-12T20:57:29.178Z,1.73
2023-04-12T21:00:18.233Z,1.98
2023-04-12T21:03:04.778Z,1.42
2023-04-12T21:05:52.688Z,1.53
2023-04-12T21:08:39.192Z,1.80
2023-04-12T21:11:27.218Z,1.63
2023-04-12T21:14:12.842Z,1.60
2023-04-12T21:17:00.573Z,1.05
2023-04-12T21:19:46.078Z,1.33
2023-04-12T21:22:31.425Z,1.25
2023-04-12T21:25:17.120Z,0.80
2023-04-12T21:28:03.393Z,0.70
2023-04-12T21:30:54.880Z,1.17
2023-04-12T21:33:40.794Z,1.02
2023-04-12T21:36:30.464Z,1.77
2023-04-12T21:39:16.315Z,1.23
2023-04-12T21:42:02.057Z,1.73
2023-04-12T21:44:47.660Z,1.10
2023-04-12T21:47:33.157Z,0.90
2023-04-12T21:50:18.885Z,1.05
2023-04-12T21:53:04.214Z,1.63
2023-04-12T21:55:50.835Z,1.40
2023-04-12T21:58:36.501Z,1.20
2023-04-12T22:01:21.826Z,1.42
2023-04-12T22:04:07.920Z,1.38
2023-04-12T22:06:53.346Z,1.20
2023-04-12T22:09:40.207Z,0.85
2023-04-12T22:12:25.844Z,1.15
2023-04-12T22:15:12.002Z,1.20
2023-04-12T22:17:57.692Z,1.10
2023-04-12T22:20:43.137Z,1.50
2023-04-12T22:23:29.145Z,1.63
2023-04-12T22:26:15.308Z,0.75
2023-04-12T22:29:00.662Z,1.38
2023-04-12T22:31:46.030Z,1.50
2023-04-12T22:34:32.512Z,0.73
2023-04-12T22:37:18.919Z,1.02
2023-04-12T22:40:06.643Z,0.70
2023-04-12T22:42:52.359Z,0.70
2023-04-12T22:45:39.595Z,0.88
2023-04-12T22:48:25.199Z,0.93
2023-04-12T22:51:10.989Z,0.88
2023-04-12T22:53:57.092Z,0.57
2023-04-12T22:56:45.408Z,0.63
2023-04-12T22:59:31.030Z,0.38
2023-04-12T23:02:16.986Z,0.73
2023-04-12T23:05:02.968Z,0.85
2023-04-12T23:07:49.450Z,0.70
2023-04-12T23:10:34.801Z,0.90
2023-04-12T23:13:20.480Z,0.70
2023-04-12T23:16:07.583Z,1.35
2023-04-12T23:18:53.520Z,0.50
2023-04-12T23:21:39.976Z,0.80
2023-04-12T23:24:25.850Z,0.70
2023-04-12T23:27:11.620Z,0.60
2023-04-12T23:29:57.057Z,0.47
2023-04-12T23:32:42.691Z,0.60
2023-04-12T23:35:28.281Z,0.65
2023-04-12T23:38:23.287Z,0.95
2023-04-12T23:41:11.576Z,0.40
2023-04-12T23:46:43.073Z,0.40
2023-04-12T23:49:28.556Z,0.50
2023-04-12T23:52:15.296Z,0.60
2023-04-12T23:55:02.614Z,0.80
2023-04-12T23:57:48.437Z,0.68
